sensor_id;sensor_type;location;lat;lon;timestamp;temperature;humidity
1504;DHT22;743;47.076;15.494;2023-03-14T00:00:05;9.60;1.00
1504;DHT22;743;47.076;15.494;2023-03-14T00:02:34;9.60;1.00
1504;DHT22;743;47.076;15.494;2023-03-14T00:05:01;9.60;1.00
1504;DHT22;743;47.076;15.494;2023-03-14T00:07:34;9.70;1.00
1504;DHT22;743;47.076;15.494;2023-03-14T00:10:02;9.80;1.00
1504;DHT22;743;47.076;15.494;2023-03-14T00:12:30;9.90;1.00
1504;DHT22;743;47.076;15.494;2023-03-14T00:14:57;10.10;1.00
1504;DHT22;743;47.076;15.494;2023-03-14T00:17:25;10.10;1.00
1504;DHT22;743;47.076;15.494;2023-03-14T00:19:52;10.20;1.00
1504;DHT22;743;47.076;15.494;2023-03-14T00:22:19;10.10;1.00
1504;DHT22;743;47.076;15.494;2023-03-14T00:24:48;10.00;1.00
1504;DHT22;743;47.076;15.494;2023-03-14T00:27:15;10.00;1.00
1504;DHT22;743;47.076;15.494;2023-03-14T00:29:42;10.10;1.00
1504;DHT22;743;47.076;15.494;2023-03-14T00:32:10;10.00;1.00
1504;DHT22;743;47.076;15.494;2023-03-14T00:34:37;9.90;1.00
1504;DHT22;743;47.076;15.494;2023-03-14T00:37:05;10.00;1.00
1504;DHT22;743;47.076;15.494;2023-03-14T00:39:32;10.10;1.00
1504;DHT22;743;47.076;15.494;2023-03-14T00:42:03;10.20;1.00
1504;DHT22;743;47.076;15.494;2023-03-14T00:44:30;10.50;1.00
1504;DHT22;743;47.076;15.494;2023-03-14T00:46:58;10.50;1.00
1504;DHT22;743;47.076;15.494;2023-03-14T00:49:25;10.70;1.00
1504;DHT22;743;47.076;15.494;2023-03-14T00:51:52;10.60;1.00
1504;DHT22;743;47.076;15.494;2023-03-14T00:54:19;10.20;1.00
1504;DHT22;743;47.076;15.494;2023-03-14T00:56:46;9.90;1.00
1504;DHT22;743;47.076;15.494;2023-03-14T00:59:16;9.80;1.00
1504;DHT22;743;47.076;15.494;2023-03-14T01:01:43;9.80;1.00
1504;DHT22;743;47.076;15.494;2023-03-14T01:04:10;10.00;1.00
1504;DHT22;743;47.076;15.494;2023-03-14T01:06:37;10.10;1.00
1504;DHT22;743;47.076;15.494;2023-03-14T01:09:05;10.40;1.00
1504;DHT22;743;47.076;15.494;2023-03-14T01:11:33;10.60;1.00
1504;DHT22;743;47.076;15.494;2023-03-14T01:14:01;10.70;1.00
1504;DHT22;743;47.076;15.494;2023-03-14T01:16:31;10.70;1.00
1504;DHT22;743;47.076;15.494;2023-03-14T01:18:59;10.60;1.00
1504;DHT22;743;47.076;15.494;2023-03-14T01:21:27;10.50;1.00
1504;DHT22;743;47.076;15.494;2023-03-14T01:23:55;10.50;1.00
1504;DHT22;743;47.076;15.494;2023-03-14T01:26:23;10.20;1.00
1504;DHT22;743;47.076;15.494;2023-03-14T01:28:50;10.10;1.00
1504;DHT22;743;47.076;15.494;2023-03-14T01:31:18;10.10;1.00
1504;DHT22;743;47.076;15.494;2023-03-14T01:33:47;10.10;1.00
1504;DHT22;743;47.076;15.494;2023-03-14T01:36:15;10.10;1.00
1504;DHT22;743;47.076;15.494;2023-03-14T01:38:43;10.20;1.00
1504;DHT22;743;47.076;15.494;2023-03-14T01:41:12;10.40;1.00
1504;DHT22;743;47.076;15.494;2023-03-14T01:43:39;10.50;1.00
1504;DHT22;743;47.076;15.494;2023-03-14T01:46:16;10.40;1.00
1504;DHT22;743;47.076;15.494;2023-03-14T01:48:45;10.30;1.00
1504;DHT22;743;47.076;15.494;2023-03-14T01:51:15;10.30;1.00
1504;DHT22;743;47.076;15.494;2023-03-14T01:53:45;10.40;1.00
1504;DHT22;743;47.076;15.494;2023-03-14T01:56:14;10.40;1.00
1504;DHT22;743;47.076;15.494;2023-03-14T01:58:42;10.30;1.00
1504;DHT22;743;47.076;15.494;2023-03-14T02:01:13;10.10;1.00
1504;DHT22;743;47.076;15.494;2023-03-14T02:03:43;10.00;1.00
1504;DHT22;743;47.076;15.494;2023-03-14T02:06:11;10.00;1.00
1504;DHT22;743;47.076;15.494;2023-03-14T02:08:48;9.90;1.00
1504;DHT22;743;47.076;15.494;2023-03-14T02:11:15;10.00;1.00
1504;DHT22;743;47.076;15.494;2023-03-14T02:13:42;9.80;1.00
1504;DHT22;743;47.076;15.494;2023-03-14T02:16:11;9.40;1.00
1504;DHT22;743;47.076;15.494;2023-03-14T02:18:41;9.30;1.00
1504;DHT22;743;47.076;15.494;2023-03-14T02:21:10;9.40;1.00
1504;DHT22;743;47.076;15.494;2023-03-14T02:23:40;9.80;1.00
1504;DHT22;743;47.076;15.494;2023-03-14T02:26:13;9.80;1.00
1504;DHT22;743;47.076;15.494;2023-03-14T02:28:43;10.00;1.00
1504;DHT22;743;47.076;15.494;2023-03-14T02:31:11;10.00;1.00
1504;DHT22;743;47.076;15.494;2023-03-14T02:33:39;10.20;1.00
1504;DHT22;743;47.076;15.494;2023-03-14T02:36:09;10.30;1.00
1504;DHT22;743;47.076;15.494;2023-03-14T02:38:37;10.20;1.00
1504;DHT22;743;47.076;15.494;2023-03-14T02:41:07;10.10;1.00
1504;DHT22;743;47.076;15.494;2023-03-14T02:43:34;10.10;1.00
1504;DHT22;743;47.076;15.494;2023-03-14T02:46:04;10.10;1.00
1504;DHT22;743;47.076;15.494;2023-03-14T02:48:33;9.90;1.00
1504;DHT22;743;47.076;15.494;2023-03-14T02:51:01;9.80;1.00
1504;DHT22;743;47.076;15.494;2023-03-14T02:53:29;10.00;1.00
1504;DHT22;743;47.076;15.494;2023-03-14T02:55:57;9.90;1.00
1504;DHT22;743;47.076;15.494;2023-03-14T02:58:24;9.90;1.00
1504;DHT22;743;47.076;15.494;2023-03-14T03:00:51;10.00;1.00
1504;DHT22;743;47.076;15.494;2023-03-14T03:03:20;9.90;1.00
1504;DHT22;743;47.076;15.494;2023-03-14T03:05:47;9.80;1.00
1504;DHT22;743;47.076;15.494;2023-03-14T03:08:17;9.80;1.00
1504;DHT22;743;47.076;15.494;2023-03-14T03:10:44;9.90;1.00
1504;DHT22;743;47.076;15.494;2023-03-14T03:13:11;9.90;1.00
1504;DHT22;743;47.076;15.494;2023-03-14T03:15:39;9.80;1.00
1504;DHT22;743;47.076;15.494;2023-03-14T03:18:06;9.80;1.00
1504;DHT22;743;47.076;15.494;2023-03-14T03:20:34;9.90;1.00
1504;DHT22;743;47.076;15.494;2023-03-14T03:23:02;9.90;1.00
1504;DHT22;743;47.076;15.494;2023-03-14T03:25:29;10.00;1.00
1504;DHT22;743;47.076;15.494;2023-03-14T03:27:57;10.00;1.00
1504;DHT22;743;47.076;15.494;2023-03-14T03:30:24;10.00;1.00
1504;DHT22;743;47.076;15.494;2023-03-14T03:32:51;10.00;1.00
1504;DHT22;743;47.076;15.494;2023-03-14T03:35:18;9.90;1.00
1504;DHT22;743;47.076;15.494;2023-03-14T03:37:50;10.00;1.00
1504;DHT22;743;47.076;15.494;2023-03-14T03:40:16;9.90;1.00
1504;DHT22;743;47.076;15.494;2023-03-14T03:42:44;10.10;1.00
1504;DHT22;743;47.076;15.494;2023-03-14T03:45:11;10.10;1.00
1504;DHT22;743;47.076;15.494;2023-03-14T03:47:38;10.00;1.00
1504;DHT22;743;47.076;15.494;2023-03-14T03:50:05;10.00;1.00
1504;DHT22;743;47.076;15.494;2023-03-14T03:52:33;10.10;1.00
1504;DHT22;743;47.076;15.494;2023-03-14T03:55:01;10.00;1.00
1504;DHT22;743;47.076;15.494;2023-03-14T03:57:28;9.90;1.00
1504;DHT22;743;47.076;15.494;2023-03-14T03:59:55;10.00;1.00
1504;DHT22;743;47.076;15.494;2023-03-14T04:02:22;9.90;1.00
1504;DHT22;743;47.076;15.494;2023-03-14T04:04:50;10.10;1.00
1504;DHT22;743;47.076;15.494;2023-03-14T04:07:17;10.20;1.00
1504;DHT22;743;47.076;15.494;2023-03-14T04:09:43;10.00;1.00
1504;DHT22;743;47.076;15.494;2023-03-14T04:12:12;9.70;1.00
1504;DHT22;743;47.076;15.494;2023-03-14T04:14:40;9.70;1.00
1504;DHT22;743;47.076;15.494;2023-03-14T04:17:07;9.70;1.00
1504;DHT22;743;47.076;15.494;2023-03-14T04:19:34;9.80;1.00
1504;DHT22;743;47.076;15.494;2023-03-14T04:22:01;9.80;1.00
1504;DHT22;743;47.076;15.494;2023-03-14T04:24:28;9.80;1.00
1504;DHT22;743;47.076;15.494;2023-03-14T04:26:55;9.90;1.00
1504;DHT22;743;47.076;15.494;2023-03-14T04:29:24;9.80;1.00
1504;DHT22;743;47.076;15.494;2023-03-14T04:31:52;9.70;1.00
1504;DHT22;743;47.076;15.494;2023-03-14T04:34:19;9.70;1.00
1504;DHT22;743;47.076;15.494;2023-03-14T04:36:46;9.80;1.00
1504;DHT22;743;47.076;15.494;2023-03-14T04:39:13;9.90;1.00
1504;DHT22;743;47.076;15.494;2023-03-14T04:41:40;10.00;1.00
1504;DHT22;743;47.076;15.494;2023-03-14T04:44:07;10.00;1.00
1504;DHT22;743;47.076;15.494;2023-03-14T04:46:35;10.10;1.00
1504;DHT22;743;47.076;15.494;2023-03-14T04:49:02;10.10;1.00
1504;DHT22;743;47.076;15.494;2023-03-14T04:51:31;10.20;1.00
1504;DHT22;743;47.076;15.494;2023-03-14T04:53:58;10.30;1.00
1504;DHT22;743;47.076;15.494;2023-03-14T04:56:25;10.30;1.00
1504;DHT22;743;47.076;15.494;2023-03-14T04:58:53;10.20;1.00
1504;DHT22;743;47.076;15.494;2023-03-14T05:01:21;10.00;1.00
1504;DHT22;743;47.076;15.494;2023-03-14T05:03:50;10.00;1.00
1504;DHT22;743;47.076;15.494;2023-03-14T05:06:17;10.00;1.00
1504;DHT22;743;47.076;15.494;2023-03-14T05:08:45;10.10;1.00
1504;DHT22;743;47.076;15.494;2023-03-14T05:11:12;10.20;1.00
1504;DHT22;743;47.076;15.494;2023-03-14T05:13:39;10.40;1.00
1504;DHT22;743;47.076;15.494;2023-03-14T05:16:07;10.40;1.00
1504;DHT22;743;47.076;15.494;2023-03-14T05:18:34;10.30;1.00
1504;DHT22;743;47.076;15.494;2023-03-14T05:21:03;10.30;1.00
1504;DHT22;743;47.076;15.494;2023-03-14T05:23:30;10.20;1.00
1504;DHT22;743;47.076;15.494;2023-03-14T05:25:57;10.40;1.00
1504;DHT22;743;47.076;15.494;2023-03-14T05:28:25;10.50;1.00
1504;DHT22;743;47.076;15.494;2023-03-14T05:30:53;10.40;1.00
1504;DHT22;743;47.076;15.494;2023-03-14T05:33:20;10.30;1.00
1504;DHT22;743;47.076;15.494;2023-03-14T05:35:48;10.50;1.00
1504;DHT22;743;47.076;15.494;2023-03-14T05:38:17;10.60;1.00
1504;DHT22;743;47.076;15.494;2023-03-14T05:40:44;10.70;1.00
1504;DHT22;743;47.076;15.494;2023-03-14T05:43:11;10.70;1.00
1504;DHT22;743;47.076;15.494;2023-03-14T05:45:40;10.70;1.00
1504;DHT22;743;47.076;15.494;2023-03-14T05:48:07;10.60;1.00
1504;DHT22;743;47.076;15.494;2023-03-14T05:50:47;10.60;1.00
1504;DHT22;743;47.076;15.494;2023-03-14T05:53:14;10.60;1.00
1504;DHT22;743;47.076;15.494;2023-03-14T05:55:42;11.70;1.00
1504;DHT22;743;47.076;15.494;2023-03-14T05:58:09;13.10;1.00
1504;DHT22;743;47.076;15.494;2023-03-14T06:00:36;14.30;1.00
1504;DHT22;743;47.076;15.494;2023-03-14T06:03:03;15.10;1.00
1504;DHT22;743;47.076;15.494;2023-03-14T06:05:30;15.10;1.00
1504;DHT22;743;47.076;15.494;2023-03-14T06:07:57;15.00;1.00
1504;DHT22;743;47.076;15.494;2023-03-14T06:13:18;13.60;1.00
1504;DHT22;743;47.076;15.494;2023-03-14T06:15:57;13.50;1.00
1504;DHT22;743;47.076;15.494;2023-03-14T06:18:26;13.10;1.00
1504;DHT22;743;47.076;15.494;2023-03-14T06:20:53;12.90;1.00
1504;DHT22;743;47.076;15.494;2023-03-14T06:23:22;12.90;1.00
1504;DHT22;743;47.076;15.494;2023-03-14T06:25:50;12.70;1.00
1504;DHT22;743;47.076;15.494;2023-03-14T06:28:18;12.30;1.00
1504;DHT22;743;47.076;15.494;2023-03-14T06:30:45;12.30;1.00
1504;DHT22;743;47.076;15.494;2023-03-14T06:33:12;12.20;1.00
1504;DHT22;743;47.076;15.494;2023-03-14T06:35:39;12.20;1.00
1504;DHT22;743;47.076;15.494;2023-03-14T06:38:08;12.30;1.00
